San Cosme, Argentina
Current Conditions -  °F | °C
As of 10:00 PM on Friday 19 Dec 2014 (Local Time) from SARC Reporting Station
Clear Clear  
Wind Chill: 27°   Ceiling: Unl
Heat Index: 29°   Visibility: 6mi
Dew Point: 22°   Wind: 5mph
Humidity: 74%   Direction: 70°ENE
Pressure: 29.59"   Gusts: NA
Location:  27.37°S, 58.52°W
Report Text: SARC 200100Z 07004KT CAVOK 27/22 Q1002
Loading
Personal Weather Stations






























Interactive Weather Map New forecast layout! Learn more

10-Day Weather Forecast

Advertisements
Track Severe Weather on mobile